Share

Hinkle, KY (40953)

liford's (KKYBARBO2) Elev 1270 ft | 36.84 °N, 83.85 °W | Change Station

Current weather conditions updated 1 minute ago

Clear
Clear
69.8 °F
Feels Like 69.8 °F
N
2.7
Wind Variable Wind from ESE
Sunrise 6:57 AM
Sunset 8:12 PM
Moon Waning Gibbous

Tomorrow is forecast to be nearly the same temperature as today.

Pressure 30.22 in
Visibility 10.0 miles
Clouds Clear
Dew Point 44 °F
Humidity 40%
Rainfall 0.00 in
Snow Depth Not available.
UV 4 out of 16
Pollen 9.90 out of 12
Air Quality Not available.
Flu Activity Sporadic
METAR K1A6 182115Z AUTO 10004KT 10SM CLR 19/04 A3022 RMK AO2 T01920043

More Conditions Fewer Conditions

Pressure 30.22 in
Visibility 10.0 miles
Clouds Clear
Dew Point 44 °F
Humidity 40%
Rainfall 0.00 in
Snow Depth Not available.
UV 4 out of 16
Pollen 9.90 out of 12
Air Quality Not available.
Flu Activity Sporadic
METAR K1A6 182115Z AUTO 10004KT 10SM CLR 19/04 A3022 RMK AO2 T01920043

More Conditions Fewer Conditions

10-Day Weather Forecast

Almanac

Astronomy

Apr. 18, 2014 Rise Set
Actual Time 6:57 AM EDT 8:12 PM EDT
Civil Twilight 6:30 AM EDT 8:39 PM EDT
Nautical Twilight 5:58 AM EDT 9:11 PM EDT
Astronomical Twilight 5:24 AM EDT 9:45 PM EDT
Moon 11:53 PM EDT 9:21 AM EDT
Length of Visible Light 14h 09m
Length of Day
13h 15m
Tomorrow will be 2m 12s longer.
Waning Gibbous, 85% of the Moon is Illuminated
Today
Waning Gibbous
Apr 22
Last Quarter
Apr 29
New
May 6
First Quarter
May 14
Full

Today's Extremes

State Highs State Lows

Community

  • Spring Chickadee
    Spring Chickadee
  • What's for Lunch?
    What's for Lunch?
  • SUNRISE THROUGH THE TREES.
    SUNRISE THROUGH THE TREES.
  • Dog Wood Blossoms
    Dog Wood Blossoms
  • Morning Light
    Morning Light

WunderPhotos

Upload Photos

1,702,513 photos uploaded!

WunderBlogs® & News

Nearby

Snow Depth

Station Depth Elevation
No new snow has been reported.

Coastal Water Temperatures

Place Temperature
No Stations Reporting

Earthquake Activity

City Distance Mag. Time & Date
Englewood, Tennessee 105 miles 2.8 10:34 PM EDT
2014-04-12
Minimum magnitude displayed is 2.5.

Nearby Weather Stations

Station Location Temp. Heat Index Dew Point Humidity Wind Precip. Elev Updated Type
liford's, Barbourville, KY 69.8 °F - 44 °F 40% ESE  at  2.7 mph - / hr 1270 ft 5:34 PM EDT Normal
Mackey Bend, Barbourville, KY 68.9 °F - 40 °F 35% North  at  1.7 mph - / hr 997 ft 5:32 PM EDT Normal
Colmar, Middlesboro, KY 67.5 °F - 42 °F 40% NE  at  2.0 mph - / hr 1270 ft 5:23 PM EDT Normal
RAWS PEABODY KY, Big Creek, KY 70 °F - 38 °F 31% NNE  at  4 mph 0.00 in / hr 1464 ft 5:01 PM EDT MADIS
MSWO, London, KY 70.5 °F 76 °F 39 °F 32% ESE  at  4.0 mph 0.00 in / hr 1155 ft 5:36 PM EDT Rapid Fire

Show More Stations Show Fewer Stations

What do you think?

We're not finished. Please let us know what you like, what you don't like, and what you are still missing.